Airfield :
LOGIN :

Register | Disclaimer

   EN    FR    IT 

 










Legend :    VFR   Marginal VFR   IFR   Intensive IFR   Very Intensive IFR
Visi :
Ceiling :
>= 8 km
>= 3000ft
5 to 8 km
1000 to 3000 ft
1500m to 5 km
500 to 1000 ft
800 to 1500m
200 to 500 ft
< 800m
< 200 ft
Symbols :   Thunderstorms  Fog  Heavy snow  Heavy precipitations  Wind > 20 kt
SIGMETs :     Misc.  Thunderstorms  Icing  Turbulence  Mountain Waves  Volcanic Ashes






- Airport Elevation : 26 ft
- IATA code : KLX


LGKL - Kalamata AB

CURRENT METAR :
  • 090620Z VRB03KT 8000 4000SE BR FEW008 SCT030 10/09 Q1017

EXPIRED METARs :
  • 090550Z 00000KT 7000 3000SE BR FEW008 BKN030 10/08 Q1016
  • 090520Z 00000KT 7000 3000SE BR FEW008 BKN030 09/08 Q1017
  • 090450Z 00000KT 8000 4000SE BR FEW008 BKN030 09/08 Q1016
  • 090420Z 00000KT 8000 4000SE -DZ BR FEW008 BKN030 09/08 Q1016
  • 090350Z 00000KT 8000 4000SE -DZ BR FEW008 BKN030 09/08 Q1016

TAF TAF LGKL
Valid from the 09 at 06:00 until the 09 at 15:00 UTC


090500Z 0906/0915 33010KT 9999 FEW012 BKN020 BKN080
BECMG 0907/0909 17012KT
PROB30
TEMPO 0909/0915 5000 RA



MET'MAP, your aeronautical weather chart ! - Copyright ORBIFLY December 2007 - Disclaimer

ORBIFLY MET'MAP TEAM :

Programming & Development : Alexandra Zaïnal
Concept & original design : Baudouin d'Aumeries
Assistance for programming : Marc-Olivier Méhu
Technical & hardware support : Manuel Goepfert

Contact : metmap@orbifly.com




SOURCES & CREDITS :

   NOAA